sensor_id;sensor_type;location;lat;lon;timestamp;P1;durP1;ratioP1;P2;durP2;ratioP2
20910;SDS011;10615;42.702;23.314;2023-09-19T00:00:29;7.82;;;4.47;;
20910;SDS011;10615;42.702;23.314;2023-09-19T00:01:30;5.53;;;4.40;;
20910;SDS011;10615;42.702;23.314;2023-09-19T00:02:31;8.38;;;4.38;;
20910;SDS011;10615;42.702;23.314;2023-09-19T00:03:33;5.97;;;4.60;;
20910;SDS011;10615;42.702;23.314;2023-09-19T00:04:37;4.80;;;4.30;;
20910;SDS011;10615;42.702;23.314;2023-09-19T00:05:39;6.75;;;4.75;;
20910;SDS011;10615;42.702;23.314;2023-09-19T00:06:44;8.77;;;4.80;;
20910;SDS011;10615;42.702;23.314;2023-09-19T00:07:45;6.80;;;4.50;;
20910;SDS011;10615;42.702;23.314;2023-09-19T00:08:45;5.80;;;4.55;;
20910;SDS011;10615;42.702;23.314;2023-09-19T00:09:48;5.45;;;3.70;;
20910;SDS011;10615;42.702;23.314;2023-09-19T00:10:48;6.28;;;4.05;;
20910;SDS011;10615;42.702;23.314;2023-09-19T00:11:49;6.82;;;4.35;;
20910;SDS011;10615;42.702;23.314;2023-09-19T00:12:53;5.47;;;4.05;;
20910;SDS011;10615;42.702;23.314;2023-09-19T00:13:58;6.00;;;4.32;;
20910;SDS011;10615;42.702;23.314;2023-09-19T00:14:59;5.10;;;4.32;;
20910;SDS011;10615;42.702;23.314;2023-09-19T00:16:00;6.78;;;4.38;;
20910;SDS011;10615;42.702;23.314;2023-09-19T00:17:02;6.53;;;4.03;;
20910;SDS011;10615;42.702;23.314;2023-09-19T00:18:08;5.93;;;4.80;;
20910;SDS011;10615;42.702;23.314;2023-09-19T00:19:09;5.60;;;4.10;;
20910;SDS011;10615;42.702;23.314;2023-09-19T00:20:10;7.40;;;4.50;;
20910;SDS011;10615;42.702;23.314;2023-09-19T00:21:13;7.25;;;4.60;;
20910;SDS011;10615;42.702;23.314;2023-09-19T00:22:15;5.60;;;4.40;;
20910;SDS011;10615;42.702;23.314;2023-09-19T00:23:16;7.82;;;4.03;;
20910;SDS011;10615;42.702;23.314;2023-09-19T00:24:17;6.40;;;4.40;;
20910;SDS011;10615;42.702;23.314;2023-09-19T00:25:19;4.95;;;4.30;;
20910;SDS011;10615;42.702;23.314;2023-09-19T00:26:20;7.97;;;4.40;;
20910;SDS011;10615;42.702;23.314;2023-09-19T00:27:21;6.68;;;4.57;;
20910;SDS011;10615;42.702;23.314;2023-09-19T00:28:22;5.15;;;4.63;;
20910;SDS011;10615;42.702;23.314;2023-09-19T00:29:23;5.40;;;4.38;;
20910;SDS011;10615;42.702;23.314;2023-09-19T00:30:25;5.47;;;4.30;;
20910;SDS011;10615;42.702;23.314;2023-09-19T00:31:26;8.52;;;4.40;;
20910;SDS011;10615;42.702;23.314;2023-09-19T00:32:27;5.28;;;4.25;;
20910;SDS011;10615;42.702;23.314;2023-09-19T00:33:32;9.75;;;5.05;;
20910;SDS011;10615;42.702;23.314;2023-09-19T00:34:32;5.30;;;4.43;;
20910;SDS011;10615;42.702;23.314;2023-09-19T00:35:34;6.95;;;4.70;;
20910;SDS011;10615;42.702;23.314;2023-09-19T00:36:37;7.53;;;4.72;;
20910;SDS011;10615;42.702;23.314;2023-09-19T00:37:39;5.68;;;4.47;;
20910;SDS011;10615;42.702;23.314;2023-09-19T00:38:40;5.32;;;4.20;;
20910;SDS011;10615;42.702;23.314;2023-09-19T00:39:40;6.35;;;4.60;;
20910;SDS011;10615;42.702;23.314;2023-09-19T00:40:44;7.88;;;4.70;;
20910;SDS011;10615;42.702;23.314;2023-09-19T00:41:45;6.32;;;4.05;;
20910;SDS011;10615;42.702;23.314;2023-09-19T00:42:46;7.72;;;4.40;;
20910;SDS011;10615;42.702;23.314;2023-09-19T00:43:48;4.88;;;4.20;;
20910;SDS011;10615;42.702;23.314;2023-09-19T00:44:50;5.55;;;4.68;;
20910;SDS011;10615;42.702;23.314;2023-09-19T00:45:52;5.93;;;4.47;;
20910;SDS011;10615;42.702;23.314;2023-09-19T00:46:54;8.35;;;4.47;;
20910;SDS011;10615;42.702;23.314;2023-09-19T00:47:55;5.90;;;4.43;;
20910;SDS011;10615;42.702;23.314;2023-09-19T00:48:56;10.13;;;4.35;;
20910;SDS011;10615;42.702;23.314;2023-09-19T00:49:57;8.13;;;4.90;;
20910;SDS011;10615;42.702;23.314;2023-09-19T00:50:59;7.45;;;4.97;;
20910;SDS011;10615;42.702;23.314;2023-09-19T00:52:04;6.03;;;4.93;;
20910;SDS011;10615;42.702;23.314;2023-09-19T00:53:05;7.30;;;4.60;;
20910;SDS011;10615;42.702;23.314;2023-09-19T00:54:08;6.13;;;4.40;;
20910;SDS011;10615;42.702;23.314;2023-09-19T00:55:10;7.22;;;5.00;;
20910;SDS011;10615;42.702;23.314;2023-09-19T00:56:17;7.15;;;5.07;;
20910;SDS011;10615;42.702;23.314;2023-09-19T00:57:18;6.50;;;4.72;;
20910;SDS011;10615;42.702;23.314;2023-09-19T00:58:19;6.68;;;4.47;;
20910;SDS011;10615;42.702;23.314;2023-09-19T00:59:20;5.35;;;4.57;;
20910;SDS011;10615;42.702;23.314;2023-09-19T01:00:22;7.10;;;4.95;;
20910;SDS011;10615;42.702;23.314;2023-09-19T01:01:24;5.82;;;4.22;;
20910;SDS011;10615;42.702;23.314;2023-09-19T01:02:25;6.43;;;4.38;;
20910;SDS011;10615;42.702;23.314;2023-09-19T01:03:30;7.43;;;4.60;;
20910;SDS011;10615;42.702;23.314;2023-09-19T01:04:31;7.13;;;4.97;;
20910;SDS011;10615;42.702;23.314;2023-09-19T01:05:33;6.30;;;5.07;;
20910;SDS011;10615;42.702;23.314;2023-09-19T01:06:34;5.75;;;4.90;;
20910;SDS011;10615;42.702;23.314;2023-09-19T01:07:36;6.80;;;4.90;;
20910;SDS011;10615;42.702;23.314;2023-09-19T01:08:40;5.75;;;4.78;;
20910;SDS011;10615;42.702;23.314;2023-09-19T01:09:41;7.05;;;4.65;;
20910;SDS011;10615;42.702;23.314;2023-09-19T01:10:51;7.00;;;4.55;;
20910;SDS011;10615;42.702;23.314;2023-09-19T01:11:58;6.65;;;4.78;;
20910;SDS011;10615;42.702;23.314;2023-09-19T01:18:02;8.38;;;4.90;;
20910;SDS011;10615;42.702;23.314;2023-09-19T01:20:27;6.53;;;4.78;;
20910;SDS011;10615;42.702;23.314;2023-09-19T01:23:11;8.38;;;5.55;;
20910;SDS011;10615;42.702;23.314;2023-09-19T01:24:33;5.97;;;4.90;;
20910;SDS011;10615;42.702;23.314;2023-09-19T01:27:12;6.97;;;5.00;;
20910;SDS011;10615;42.702;23.314;2023-09-19T01:28:31;6.55;;;5.20;;
20910;SDS011;10615;42.702;23.314;2023-09-19T01:30:17;8.77;;;5.28;;
20910;SDS011;10615;42.702;23.314;2023-09-19T01:31:24;7.15;;;4.90;;
20910;SDS011;10615;42.702;23.314;2023-09-19T01:32:32;8.57;;;5.32;;
20910;SDS011;10615;42.702;23.314;2023-09-19T01:36:05;6.75;;;5.10;;
20910;SDS011;10615;42.702;23.314;2023-09-19T01:37:06;7.93;;;5.30;;
20910;SDS011;10615;42.702;23.314;2023-09-19T01:38:07;6.40;;;5.25;;
20910;SDS011;10615;42.702;23.314;2023-09-19T01:39:11;6.95;;;5.65;;
20910;SDS011;10615;42.702;23.314;2023-09-19T01:40:14;7.60;;;5.40;;
20910;SDS011;10615;42.702;23.314;2023-09-19T01:41:20;6.47;;;5.30;;
20910;SDS011;10615;42.702;23.314;2023-09-19T01:42:49;7.80;;;5.20;;
20910;SDS011;10615;42.702;23.314;2023-09-19T01:44:19;6.88;;;5.32;;
20910;SDS011;10615;42.702;23.314;2023-09-19T01:46:35;6.18;;;5.15;;
20910;SDS011;10615;42.702;23.314;2023-09-19T01:52:19;6.82;;;5.30;;
20910;SDS011;10615;42.702;23.314;2023-09-19T01:53:25;8.18;;;5.22;;
20910;SDS011;10615;42.702;23.314;2023-09-19T01:54:31;7.60;;;5.30;;
20910;SDS011;10615;42.702;23.314;2023-09-19T01:55:41;8.75;;;5.60;;
20910;SDS011;10615;42.702;23.314;2023-09-19T01:56:50;7.20;;;5.90;;
20910;SDS011;10615;42.702;23.314;2023-09-19T01:58:04;7.25;;;5.22;;
20910;SDS011;10615;42.702;23.314;2023-09-19T01:59:30;5.93;;;5.32;;
20910;SDS011;10615;42.702;23.314;2023-09-19T02:00:38;9.60;;;5.45;;
20910;SDS011;10615;42.702;23.314;2023-09-19T02:01:42;6.57;;;5.35;;
20910;SDS011;10615;42.702;23.314;2023-09-19T02:02:46;6.38;;;5.32;;
20910;SDS011;10615;42.702;23.314;2023-09-19T02:03:47;6.40;;;5.70;;
20910;SDS011;10615;42.702;23.314;2023-09-19T02:04:50;7.70;;;5.80;;
20910;SDS011;10615;42.702;23.314;2023-09-19T02:05:51;9.23;;;5.68;;
20910;SDS011;10615;42.702;23.314;2023-09-19T02:06:53;6.88;;;5.55;;
20910;SDS011;10615;42.702;23.314;2023-09-19T02:07:55;8.20;;;6.03;;
20910;SDS011;10615;42.702;23.314;2023-09-19T02:08:56;8.02;;;5.85;;
20910;SDS011;10615;42.702;23.314;2023-09-19T02:10:00;5.80;;;5.10;;
20910;SDS011;10615;42.702;23.314;2023-09-19T02:11:00;7.60;;;5.55;;
20910;SDS011;10615;42.702;23.314;2023-09-19T02:12:01;10.63;;;5.72;;
20910;SDS011;10615;42.702;23.314;2023-09-19T02:13:03;7.78;;;5.32;;
20910;SDS011;10615;42.702;23.314;2023-09-19T02:14:04;6.60;;;5.90;;
20910;SDS011;10615;42.702;23.314;2023-09-19T02:15:08;8.05;;;5.78;;
20910;SDS011;10615;42.702;23.314;2023-09-19T02:16:09;7.43;;;5.53;;
20910;SDS011;10615;42.702;23.314;2023-09-19T02:17:11;7.10;;;6.40;;
20910;SDS011;10615;42.702;23.314;2023-09-19T02:18:12;6.95;;;5.47;;
20910;SDS011;10615;42.702;23.314;2023-09-19T02:19:14;7.90;;;5.60;;
20910;SDS011;10615;42.702;23.314;2023-09-19T02:20:15;8.00;;;5.95;;
20910;SDS011;10615;42.702;23.314;2023-09-19T02:21:17;8.18;;;5.97;;
20910;SDS011;10615;42.702;23.314;2023-09-19T02:22:18;7.68;;;6.13;;
20910;SDS011;10615;42.702;23.314;2023-09-19T02:23:18;8.05;;;5.72;;
20910;SDS011;10615;42.702;23.314;2023-09-19T02:24:19;7.38;;;5.70;;
20910;SDS011;10615;42.702;23.314;2023-09-19T02:25:20;7.45;;;5.70;;
20910;SDS011;10615;42.702;23.314;2023-09-19T02:26:21;8.18;;;6.00;;
20910;SDS011;10615;42.702;23.314;2023-09-19T02:27:23;7.45;;;5.82;;
20910;SDS011;10615;42.702;23.314;2023-09-19T02:28:24;8.18;;;5.97;;
20910;SDS011;10615;42.702;23.314;2023-09-19T02:29:30;7.03;;;6.07;;
20910;SDS011;10615;42.702;23.314;2023-09-19T02:30:31;7.30;;;6.55;;
20910;SDS011;10615;42.702;23.314;2023-09-19T02:31:32;9.05;;;6.80;;
20910;SDS011;10615;42.702;23.314;2023-09-19T02:32:33;9.18;;;7.80;;
20910;SDS011;10615;42.702;23.314;2023-09-19T02:33:38;10.85;;;7.47;;
20910;SDS011;10615;42.702;23.314;2023-09-19T02:34:39;10.43;;;8.10;;
20910;SDS011;10615;42.702;23.314;2023-09-19T02:35:40;10.30;;;7.95;;
20910;SDS011;10615;42.702;23.314;2023-09-19T02:36:40;11.38;;;8.00;;
20910;SDS011;10615;42.702;23.314;2023-09-19T02:37:41;10.25;;;7.93;;
20910;SDS011;10615;42.702;23.314;2023-09-19T02:38:42;12.88;;;8.88;;
20910;SDS011;10615;42.702;23.314;2023-09-19T02:39:43;10.88;;;8.38;;
20910;SDS011;10615;42.702;23.314;2023-09-19T02:40:44;12.52;;;9.07;;
20910;SDS011;10615;42.702;23.314;2023-09-19T02:41:44;12.10;;;8.73;;
20910;SDS011;10615;42.702;23.314;2023-09-19T02:42:46;12.55;;;9.05;;
20910;SDS011;10615;42.702;23.314;2023-09-19T02:43:53;11.32;;;7.32;;
20910;SDS011;10615;42.702;23.314;2023-09-19T02:44:53;10.23;;;8.30;;
20910;SDS011;10615;42.702;23.314;2023-09-19T02:45:54;8.63;;;7.07;;
20910;SDS011;10615;42.702;23.314;2023-09-19T02:46:57;11.10;;;7.22;;
20910;SDS011;10615;42.702;23.314;2023-09-19T02:47:57;10.85;;;6.93;;
20910;SDS011;10615;42.702;23.314;2023-09-19T02:48:58;10.35;;;6.78;;
20910;SDS011;10615;42.702;23.314;2023-09-19T02:49:59;9.25;;;6.95;;
20910;SDS011;10615;42.702;23.314;2023-09-19T02:50:59;10.30;;;6.63;;
20910;SDS011;10615;42.702;23.314;2023-09-19T02:52:01;9.10;;;6.57;;
20910;SDS011;10615;42.702;23.314;2023-09-19T02:53:03;6.90;;;6.10;;
20910;SDS011;10615;42.702;23.314;2023-09-19T02:54:04;6.93;;;6.13;;
20910;SDS011;10615;42.702;23.314;2023-09-19T02:55:05;7.47;;;5.70;;
20910;SDS011;10615;42.702;23.314;2023-09-19T02:56:09;7.68;;;6.18;;
20910;SDS011;10615;42.702;23.314;2023-09-19T02:57:12;8.75;;;5.93;;
20910;SDS011;10615;42.702;23.314;2023-09-19T02:58:14;8.48;;;6.10;;
20910;SDS011;10615;42.702;23.314;2023-09-19T02:59:14;9.18;;;6.53;;
20910;SDS011;10615;42.702;23.314;2023-09-19T03:00:16;7.18;;;5.63;;
20910;SDS011;10615;42.702;23.314;2023-09-19T03:01:21;14.05;;;6.80;;
20910;SDS011;10615;42.702;23.314;2023-09-19T03:02:22;8.77;;;6.13;;
20910;SDS011;10615;42.702;23.314;2023-09-19T03:03:24;8.85;;;6.07;;
20910;SDS011;10615;42.702;23.314;2023-09-19T03:04:25;9.23;;;5.82;;
20910;SDS011;10615;42.702;23.314;2023-09-19T03:05:27;6.72;;;5.97;;
20910;SDS011;10615;42.702;23.314;2023-09-19T03:06:30;7.90;;;6.35;;
20910;SDS011;10615;42.702;23.314;2023-09-19T03:07:31;9.82;;;5.65;;
20910;SDS011;10615;42.702;23.314;2023-09-19T03:08:32;10.23;;;6.50;;
20910;SDS011;10615;42.702;23.314;2023-09-19T03:09:35;8.20;;;5.85;;
20910;SDS011;10615;42.702;23.314;2023-09-19T03:10:36;6.55;;;5.85;;
20910;SDS011;10615;42.702;23.314;2023-09-19T03:11:38;7.55;;;5.95;;
20910;SDS011;10615;42.702;23.314;2023-09-19T03:12:40;6.97;;;5.70;;
20910;SDS011;10615;42.702;23.314;2023-09-19T03:13:41;7.38;;;5.82;;
20910;SDS011;10615;42.702;23.314;2023-09-19T03:14:42;8.43;;;6.05;;
20910;SDS011;10615;42.702;23.314;2023-09-19T03:15:43;9.93;;;6.38;;
20910;SDS011;10615;42.702;23.314;2023-09-19T03:16:46;10.82;;;5.80;;
20910;SDS011;10615;42.702;23.314;2023-09-19T03:17:48;7.53;;;5.68;;
20910;SDS011;10615;42.702;23.314;2023-09-19T03:18:49;8.10;;;5.72;;
20910;SDS011;10615;42.702;23.314;2023-09-19T03:19:49;6.53;;;5.82;;
20910;SDS011;10615;42.702;23.314;2023-09-19T03:20:53;8.02;;;6.00;;
20910;SDS011;10615;42.702;23.314;2023-09-19T03:21:55;8.02;;;6.18;;
20910;SDS011;10615;42.702;23.314;2023-09-19T03:22:57;6.90;;;5.75;;
20910;SDS011;10615;42.702;23.314;2023-09-19T03:23:58;8.18;;;6.53;;
20910;SDS011;10615;42.702;23.314;2023-09-19T03:24:59;8.15;;;6.25;;
20910;SDS011;10615;42.702;23.314;2023-09-19T03:26:00;7.70;;;6.55;;
20910;SDS011;10615;42.702;23.314;2023-09-19T03:27:01;8.45;;;6.82;;
20910;SDS011;10615;42.702;23.314;2023-09-19T03:28:03;8.40;;;5.78;;
20910;SDS011;10615;42.702;23.314;2023-09-19T03:29:07;8.63;;;6.18;;
20910;SDS011;10615;42.702;23.314;2023-09-19T03:30:10;10.30;;;6.25;;
20910;SDS011;10615;42.702;23.314;2023-09-19T03:31:13;7.60;;;5.97;;
20910;SDS011;10615;42.702;23.314;2023-09-19T03:32:14;7.13;;;5.75;;
20910;SDS011;10615;42.702;23.314;2023-09-19T03:33:15;9.55;;;5.93;;
20910;SDS011;10615;42.702;23.314;2023-09-19T03:34:16;8.30;;;6.40;;
20910;SDS011;10615;42.702;23.314;2023-09-19T03:35:17;11.05;;;6.07;;
20910;SDS011;10615;42.702;23.314;2023-09-19T03:36:18;9.32;;;6.25;;
20910;SDS011;10615;42.702;23.314;2023-09-19T03:37:19;7.43;;;5.60;;
20910;SDS011;10615;42.702;23.314;2023-09-19T03:38:20;6.88;;;5.45;;
20910;SDS011;10615;42.702;23.314;2023-09-19T03:39:21;9.90;;;5.60;;
20910;SDS011;10615;42.702;23.314;2023-09-19T03:40:22;7.95;;;6.15;;
20910;SDS011;10615;42.702;23.314;2023-09-19T03:41:23;8.43;;;5.95;;
20910;SDS011;10615;42.702;23.314;2023-09-19T03:42:24;7.55;;;6.32;;
20910;SDS011;10615;42.702;23.314;2023-09-19T03:43:26;7.97;;;6.13;;
20910;SDS011;10615;42.702;23.314;2023-09-19T03:44:27;8.40;;;5.88;;
20910;SDS011;10615;42.702;23.314;2023-09-19T03:45:28;10.30;;;5.95;;
20910;SDS011;10615;42.702;23.314;2023-09-19T03:46:28;7.80;;;6.13;;
20910;SDS011;10615;42.702;23.314;2023-09-19T03:47:30;8.10;;;6.07;;
20910;SDS011;10615;42.702;23.314;2023-09-19T03:48:31;9.60;;;6.00;;
20910;SDS011;10615;42.702;23.314;2023-09-19T03:49:33;8.38;;;6.10;;
20910;SDS011;10615;42.702;23.314;2023-09-19T03:50:34;6.72;;;5.90;;
20910;SDS011;10615;42.702;23.314;2023-09-19T03:51:34;8.20;;;6.28;;
20910;SDS011;10615;42.702;23.314;2023-09-19T03:52:35;8.00;;;6.38;;
20910;SDS011;10615;42.702;23.314;2023-09-19T03:53:36;7.95;;;6.10;;
20910;SDS011;10615;42.702;23.314;2023-09-19T03:54:36;9.00;;;6.22;;
20910;SDS011;10615;42.702;23.314;2023-09-19T03:55:37;7.72;;;5.60;;
20910;SDS011;10615;42.702;23.314;2023-09-19T03:56:41;8.25;;;6.10;;
20910;SDS011;10615;42.702;23.314;2023-09-19T03:57:42;8.90;;;6.07;;
20910;SDS011;10615;42.702;23.314;2023-09-19T03:58:49;8.15;;;5.78;;
20910;SDS011;10615;42.702;23.314;2023-09-19T03:59:50;8.73;;;6.10;;
20910;SDS011;10615;42.702;23.314;2023-09-19T04:00:56;8.50;;;6.10;;
20910;SDS011;10615;42.702;23.314;2023-09-19T04:01:57;9.10;;;5.90;;
20910;SDS011;10615;42.702;23.314;2023-09-19T04:02:59;6.85;;;6.07;;
20910;SDS011;10615;42.702;23.314;2023-09-19T04:04:02;7.25;;;5.68;;
20910;SDS011;10615;42.702;23.314;2023-09-19T04:05:08;8.18;;;5.75;;
20910;SDS011;10615;42.702;23.314;2023-09-19T04:06:09;8.32;;;5.97;;
20910;SDS011;10615;42.702;23.314;2023-09-19T04:07:10;8.30;;;6.82;;
20910;SDS011;10615;42.702;23.314;2023-09-19T04:08:11;12.38;;;6.13;;
20910;SDS011;10615;42.702;23.314;2023-09-19T04:09:11;8.00;;;6.20;;
20910;SDS011;10615;42.702;23.314;2023-09-19T04:10:12;9.00;;;5.80;;
20910;SDS011;10615;42.702;23.314;2023-09-19T04:11:14;8.85;;;6.22;;
20910;SDS011;10615;42.702;23.314;2023-09-19T04:12:15;8.43;;;6.18;;
20910;SDS011;10615;42.702;23.314;2023-09-19T04:13:18;10.52;;;6.82;;
20910;SDS011;10615;42.702;23.314;2023-09-19T04:14:19;11.35;;;6.43;;
20910;SDS011;10615;42.702;23.314;2023-09-19T04:15:20;7.32;;;6.40;;
20910;SDS011;10615;42.702;23.314;2023-09-19T04:16:25;11.68;;;6.80;;
20910;SDS011;10615;42.702;23.314;2023-09-19T04:17:26;9.48;;;6.63;;
20910;SDS011;10615;42.702;23.314;2023-09-19T04:18:27;8.80;;;6.80;;
20910;SDS011;10615;42.702;23.314;2023-09-19T04:19:27;8.70;;;6.10;;
20910;SDS011;10615;42.702;23.314;2023-09-19T04:20:28;7.80;;;6.85;;
20910;SDS011;10615;42.702;23.314;2023-09-19T04:21:29;10.93;;;7.35;;
20910;SDS011;10615;42.702;23.314;2023-09-19T04:22:30;9.77;;;6.80;;
20910;SDS011;10615;42.702;23.314;2023-09-19T04:23:31;11.75;;;8.38;;
20910;SDS011;10615;42.702;23.314;2023-09-19T04:24:32;13.10;;;7.40;;
20910;SDS011;10615;42.702;23.314;2023-09-19T04:25:34;14.70;;;7.88;;
20910;SDS011;10615;42.702;23.314;2023-09-19T04:26:34;10.18;;;7.50;;
20910;SDS011;10615;42.702;23.314;2023-09-19T04:27:35;9.68;;;6.82;;
20910;SDS011;10615;42.702;23.314;2023-09-19T04:28:36;11.55;;;7.30;;
20910;SDS011;10615;42.702;23.314;2023-09-19T04:29:38;10.98;;;7.40;;
20910;SDS011;10615;42.702;23.314;2023-09-19T04:30:39;10.38;;;6.90;;
20910;SDS011;10615;42.702;23.314;2023-09-19T04:31:43;12.77;;;6.85;;
20910;SDS011;10615;42.702;23.314;2023-09-19T04:32:45;9.65;;;7.18;;
20910;SDS011;10615;42.702;23.314;2023-09-19T04:33:50;10.27;;;7.00;;
20910;SDS011;10615;42.702;23.314;2023-09-19T04:34:51;9.63;;;6.45;;
20910;SDS011;10615;42.702;23.314;2023-09-19T04:35:53;9.27;;;6.57;;
20910;SDS011;10615;42.702;23.314;2023-09-19T04:36:55;9.23;;;6.32;;
20910;SDS011;10615;42.702;23.314;2023-09-19T04:37:58;12.40;;;7.05;;
20910;SDS011;10615;42.702;23.314;2023-09-19T04:38:59;9.40;;;6.45;;
20910;SDS011;10615;42.702;23.314;2023-09-19T04:39:59;10.35;;;7.30;;
20910;SDS011;10615;42.702;23.314;2023-09-19T04:41:00;8.18;;;5.78;;
20910;SDS011;10615;42.702;23.314;2023-09-19T04:42:01;7.50;;;5.45;;
20910;SDS011;10615;42.702;23.314;2023-09-19T04:43:03;9.77;;;6.57;;
20910;SDS011;10615;42.702;23.314;2023-09-19T04:44:04;8.98;;;6.00;;
20910;SDS011;10615;42.702;23.314;2023-09-19T04:45:06;11.38;;;6.32;;
20910;SDS011;10615;42.702;23.314;2023-09-19T04:46:07;8.18;;;6.00;;
20910;SDS011;10615;42.702;23.314;2023-09-19T04:47:08;8.55;;;6.53;;
20910;SDS011;10615;42.702;23.314;2023-09-19T04:48:09;12.95;;;6.35;;
20910;SDS011;10615;42.702;23.314;2023-09-19T04:49:10;8.93;;;6.05;;
20910;SDS011;10615;42.702;23.314;2023-09-19T04:50:12;9.30;;;5.80;;
20910;SDS011;10615;42.702;23.314;2023-09-19T04:51:13;8.82;;;6.20;;
20910;SDS011;10615;42.702;23.314;2023-09-19T04:52:15;7.10;;;5.68;;
20910;SDS011;10615;42.702;23.314;2023-09-19T04:53:16;7.75;;;6.10;;
20910;SDS011;10615;42.702;23.314;2023-09-19T04:54:17;11.35;;;6.15;;
20910;SDS011;10615;42.702;23.314;2023-09-19T04:55:18;8.70;;;5.93;;
20910;SDS011;10615;42.702;23.314;2023-09-19T04:56:19;6.68;;;5.53;;
20910;SDS011;10615;42.702;23.314;2023-09-19T04:57:21;6.50;;;4.93;;
20910;SDS011;10615;42.702;23.314;2023-09-19T04:58:22;8.93;;;5.82;;
20910;SDS011;10615;42.702;23.314;2023-09-19T04:59:23;7.82;;;5.88;;
20910;SDS011;10615;42.702;23.314;2023-09-19T05:00:24;9.40;;;5.70;;
20910;SDS011;10615;42.702;23.314;2023-09-19T05:01:25;6.80;;;5.70;;
20910;SDS011;10615;42.702;23.314;2023-09-19T05:02:28;9.30;;;5.97;;
20910;SDS011;10615;42.702;23.314;2023-09-19T05:03:31;7.28;;;6.00;;
20910;SDS011;10615;42.702;23.314;2023-09-19T05:04:31;7.55;;;5.70;;
20910;SDS011;10615;42.702;23.314;2023-09-19T05:05:32;6.82;;;5.72;;
20910;SDS011;10615;42.702;23.314;2023-09-19T05:06:33;7.38;;;5.50;;
20910;SDS011;10615;42.702;23.314;2023-09-19T05:07:36;6.80;;;5.18;;
20910;SDS011;10615;42.702;23.314;2023-09-19T05:08:37;10.07;;;5.78;;
20910;SDS011;10615;42.702;23.314;2023-09-19T05:09:38;10.90;;;5.65;;
20910;SDS011;10615;42.702;23.314;2023-09-19T05:10:39;8.02;;;5.75;;
20910;SDS011;10615;42.702;23.314;2023-09-19T05:11:40;5.95;;;5.35;;
20910;SDS011;10615;42.702;23.314;2023-09-19T05:12:41;7.88;;;6.07;;
20910;SDS011;10615;42.702;23.314;2023-09-19T05:13:42;8.40;;;5.95;;
20910;SDS011;10615;42.702;23.314;2023-09-19T05:14:43;10.02;;;5.97;;
20910;SDS011;10615;42.702;23.314;2023-09-19T05:15:44;7.20;;;5.65;;
20910;SDS011;10615;42.702;23.314;2023-09-19T05:16:45;8.32;;;5.93;;
20910;SDS011;10615;42.702;23.314;2023-09-19T05:17:49;7.78;;;5.75;;
20910;SDS011;10615;42.702;23.314;2023-09-19T05:18:51;11.13;;;5.75;;
20910;SDS011;10615;42.702;23.314;2023-09-19T05:19:52;7.13;;;5.50;;
20910;SDS011;10615;42.702;23.314;2023-09-19T05:20:53;7.30;;;5.80;;
20910;SDS011;10615;42.702;23.314;2023-09-19T05:21:54;7.28;;;5.65;;
20910;SDS011;10615;42.702;23.314;2023-09-19T05:22:59;6.65;;;5.35;;
20910;SDS011;10615;42.702;23.314;2023-09-19T05:24:03;7.97;;;5.38;;
20910;SDS011;10615;42.702;23.314;2023-09-19T05:25:05;7.88;;;6.10;;
20910;SDS011;10615;42.702;23.314;2023-09-19T05:26:06;7.72;;;5.78;;
20910;SDS011;10615;42.702;23.314;2023-09-19T05:27:08;10.77;;;6.55;;
20910;SDS011;10615;42.702;23.314;2023-09-19T05:28:09;8.52;;;6.03;;
20910;SDS011;10615;42.702;23.314;2023-09-19T05:29:14;9.18;;;6.22;;
20910;SDS011;10615;42.702;23.314;2023-09-19T05:30:15;7.82;;;6.13;;
20910;SDS011;10615;42.702;23.314;2023-09-19T05:31:16;6.78;;;5.68;;
20910;SDS011;10615;42.702;23.314;2023-09-19T05:32:16;9.70;;;6.60;;
20910;SDS011;10615;42.702;23.314;2023-09-19T05:33:19;7.47;;;5.68;;
20910;SDS011;10615;42.702;23.314;2023-09-19T05:34:20;7.00;;;5.57;;
20910;SDS011;10615;42.702;23.314;2023-09-19T05:35:21;9.13;;;6.25;;
20910;SDS011;10615;42.702;23.314;2023-09-19T05:36:22;8.00;;;5.38;;
20910;SDS011;10615;42.702;23.314;2023-09-19T05:37:23;7.97;;;5.70;;
20910;SDS011;10615;42.702;23.314;2023-09-19T05:38:26;8.45;;;5.88;;
20910;SDS011;10615;42.702;23.314;2023-09-19T05:39:27;11.45;;;5.80;;
20910;SDS011;10615;42.702;23.314;2023-09-19T05:40:28;7.93;;;5.00;;
20910;SDS011;10615;42.702;23.314;2023-09-19T05:41:28;7.70;;;5.32;;
20910;SDS011;10615;42.702;23.314;2023-09-19T05:42:29;8.88;;;5.43;;
20910;SDS011;10615;42.702;23.314;2023-09-19T05:43:30;8.38;;;5.15;;
20910;SDS011;10615;42.702;23.314;2023-09-19T05:44:30;8.15;;;5.40;;
20910;SDS011;10615;42.702;23.314;2023-09-19T05:45:33;6.00;;;5.07;;
20910;SDS011;10615;42.702;23.314;2023-09-19T05:46:34;5.97;;;4.88;;
20910;SDS011;10615;42.702;23.314;2023-09-19T05:47:35;6.22;;;4.90;;
20910;SDS011;10615;42.702;23.314;2023-09-19T05:48:35;6.90;;;5.13;;
20910;SDS011;10615;42.702;23.314;2023-09-19T05:49:36;7.07;;;5.22;;
20910;SDS011;10615;42.702;23.314;2023-09-19T05:50:38;7.40;;;5.20;;
20910;SDS011;10615;42.702;23.314;2023-09-19T05:51:38;9.45;;;5.38;;
20910;SDS011;10615;42.702;23.314;2023-09-19T05:52:40;6.82;;;5.25;;
20910;SDS011;10615;42.702;23.314;2023-09-19T05:53:44;5.75;;;4.88;;
20910;SDS011;10615;42.702;23.314;2023-09-19T05:54:47;10.38;;;4.95;;
20910;SDS011;10615;42.702;23.314;2023-09-19T05:55:47;6.68;;;4.65;;
20910;SDS011;10615;42.702;23.314;2023-09-19T05:56:49;8.15;;;4.50;;
20910;SDS011;10615;42.702;23.314;2023-09-19T05:57:53;6.05;;;4.50;;
20910;SDS011;10615;42.702;23.314;2023-09-19T05:58:54;5.32;;;4.45;;
20910;SDS011;10615;42.702;23.314;2023-09-19T05:59:54;5.05;;;4.53;;
20910;SDS011;10615;42.702;23.314;2023-09-19T06:00:55;6.97;;;4.70;;
20910;SDS011;10615;42.702;23.314;2023-09-19T06:01:57;11.05;;;5.07;;
20910;SDS011;10615;42.702;23.314;2023-09-19T06:02:59;8.73;;;5.10;;
20910;SDS011;10615;42.702;23.314;2023-09-19T06:04:00;12.57;;;9.20;;
20910;SDS011;10615;42.702;23.314;2023-09-19T06:05:01;10.15;;;5.78;;
20910;SDS011;10615;42.702;23.314;2023-09-19T06:06:01;8.75;;;7.85;;
20910;SDS011;10615;42.702;23.314;2023-09-19T06:07:02;9.27;;;4.65;;
20910;SDS011;10615;42.702;23.314;2023-09-19T06:08:04;11.10;;;8.32;;
20910;SDS011;10615;42.702;23.314;2023-09-19T06:09:09;9.77;;;6.25;;
20910;SDS011;10615;42.702;23.314;2023-09-19T06:10:10;6.20;;;5.03;;
20910;SDS011;10615;42.702;23.314;2023-09-19T06:11:10;8.77;;;4.55;;
20910;SDS011;10615;42.702;23.314;2023-09-19T06:12:11;8.02;;;4.53;;
20910;SDS011;10615;42.702;23.314;2023-09-19T06:13:12;9.65;;;4.43;;
20910;SDS011;10615;42.702;23.314;2023-09-19T06:14:13;8.48;;;4.70;;
20910;SDS011;10615;42.702;23.314;2023-09-19T06:15:15;10.38;;;4.88;;
20910;SDS011;10615;42.702;23.314;2023-09-19T06:16:18;5.60;;;4.53;;
20910;SDS011;10615;42.702;23.314;2023-09-19T06:17:19;8.85;;;4.28;;
20910;SDS011;10615;42.702;23.314;2023-09-19T06:18:22;5.95;;;4.22;;
20910;SDS011;10615;42.702;23.314;2023-09-19T06:19:26;5.20;;;4.10;;
20910;SDS011;10615;42.702;23.314;2023-09-19T06:20:27;8.43;;;4.07;;
20910;SDS011;10615;42.702;23.314;2023-09-19T06:21:28;7.22;;;4.40;;
20910;SDS011;10615;42.702;23.314;2023-09-19T06:22:28;7.55;;;4.38;;
20910;SDS011;10615;42.702;23.314;2023-09-19T06:23:29;7.15;;;4.88;;
20910;SDS011;10615;42.702;23.314;2023-09-19T06:24:30;6.20;;;4.35;;
20910;SDS011;10615;42.702;23.314;2023-09-19T06:25:30;8.05;;;4.95;;
20910;SDS011;10615;42.702;23.314;2023-09-19T06:26:31;6.18;;;4.70;;
20910;SDS011;10615;42.702;23.314;2023-09-19T06:27:32;16.92;;;9.00;;